createdAt,value
2017-02-22T00:03:01.988Z,0
2017-02-22T00:08:19.276Z,0
2017-02-22T00:13:35.510Z,0
2017-02-22T00:18:52.006Z,0
2017-02-22T00:24:12.183Z,0
2017-02-22T00:29:30.010Z,0
2017-02-22T00:34:45.720Z,0
2017-02-22T00:40:01.293Z,0
2017-02-22T00:45:16.915Z,0
2017-02-22T00:50:32.685Z,0
2017-02-22T00:55:48.280Z,0
2017-02-22T01:01:04.159Z,0
2017-02-22T01:06:19.727Z,0
2017-02-22T01:11:35.542Z,0
2017-02-22T01:16:51.179Z,0
2017-02-22T01:22:07.469Z,0
2017-02-22T01:27:24.853Z,0
2017-02-22T01:32:41.134Z,0
2017-02-22T01:37:56.726Z,0
2017-02-22T01:43:13.790Z,0
2017-02-22T01:48:29.815Z,0
2017-02-22T01:53:45.767Z,0
2017-02-22T01:59:01.365Z,0
2017-02-22T02:04:17.095Z,0
2017-02-22T02:09:32.833Z,0
2017-02-22T02:14:48.697Z,0
2017-02-22T02:20:04.706Z,0
2017-02-22T02:25:20.764Z,0
2017-02-22T02:30:36.906Z,0
2017-02-22T02:35:54.571Z,0
2017-02-22T02:41:10.346Z,0
2017-02-22T02:46:26.020Z,0
2017-02-22T02:51:43.666Z,0
2017-02-22T02:56:59.466Z,0
2017-02-22T03:02:15.042Z,0
2017-02-22T03:07:30.999Z,0
2017-02-22T03:12:46.661Z,0
2017-02-22T03:18:03.919Z,0
2017-02-22T03:23:19.537Z,0
2017-02-22T03:28:35.195Z,0
2017-02-22T03:33:50.771Z,0
2017-02-22T03:39:06.583Z,0
2017-02-22T03:44:23.144Z,0
2017-02-22T03:49:38.706Z,0
2017-02-22T03:54:54.520Z,0
2017-02-22T04:00:10.103Z,0
2017-02-22T04:05:25.901Z,0
2017-02-22T04:10:41.477Z,0
2017-02-22T04:15:57.042Z,0
2017-02-22T04:21:12.664Z,0
2017-02-22T04:26:28.442Z,0
2017-02-22T04:31:44.036Z,0
2017-02-22T04:36:59.628Z,0
2017-02-22T04:42:15.254Z,0
2017-02-22T04:47:30.994Z,0
2017-02-22T04:52:46.559Z,0
2017-02-22T04:58:02.139Z,0
2017-02-22T05:03:17.763Z,0
2017-02-22T05:08:35.176Z,0
2017-02-22T05:13:52.820Z,0
2017-02-22T05:19:08.436Z,0
2017-02-22T05:24:24.774Z,0
2017-02-22T05:29:40.355Z,0
2017-02-22T05:34:56.070Z,0
2017-02-22T05:40:11.665Z,0
2017-02-22T05:45:27.433Z,0
2017-02-22T05:50:43.061Z,0
2017-02-22T05:55:58.655Z,0
2017-02-22T06:01:14.316Z,0
2017-02-22T06:06:29.886Z,0
2017-02-22T06:11:45.524Z,0
2017-02-22T06:17:01.095Z,0
2017-02-22T06:22:16.884Z,0
2017-02-22T06:27:32.659Z,0
2017-02-22T06:32:48.243Z,0
2017-02-22T06:38:04.629Z,0
2017-02-22T06:43:20.198Z,0
2017-02-22T06:48:35.766Z,0
2017-02-22T06:53:52.340Z,0
2017-02-22T06:59:08.026Z,0
2017-02-22T07:04:24.538Z,0
2017-02-22T07:09:40.107Z,0
2017-02-22T07:14:55.695Z,0
2017-02-22T07:20:11.265Z,0
2017-02-22T07:25:26.976Z,0
2017-02-22T07:30:42.602Z,0
2017-02-22T07:35:58.612Z,0
2017-02-22T07:41:14.344Z,0
2017-02-22T07:46:30.193Z,0
2017-02-22T07:51:45.805Z,0
2017-02-22T07:57:01.421Z,0
2017-02-22T08:02:17.472Z,0
2017-02-22T08:07:33.136Z,0
2017-02-22T08:12:48.730Z,0
2017-02-22T08:18:04.362Z,0
2017-02-22T08:23:20.292Z,0
2017-02-22T08:28:37.023Z,0
2017-02-22T08:33:52.840Z,0
2017-02-22T08:39:08.393Z,0
2017-02-22T08:44:24.596Z,5
2017-02-22T08:49:41.052Z,5
2017-02-22T08:54:57.089Z,5
2017-02-22T09:00:13.075Z,5
2017-02-22T09:05:29.126Z,5
2017-02-22T09:10:46.240Z,10
2017-02-22T09:16:01.856Z,10
2017-02-22T09:21:17.653Z,10
2017-02-22T09:26:34.643Z,10
2017-02-22T09:31:52.323Z,15
2017-02-22T09:37:07.946Z,15
2017-02-22T09:42:24.844Z,20
2017-02-22T09:47:40.534Z,15
2017-02-22T09:52:56.522Z,25
2017-02-22T09:58:12.099Z,35
2017-02-22T10:03:28.181Z,40
2017-02-22T10:08:43.957Z,40
2017-02-22T10:13:59.555Z,40
2017-02-22T10:19:15.197Z,40
2017-02-22T10:24:31.601Z,45
2017-02-22T10:29:47.259Z,45
2017-02-22T10:35:02.990Z,50
2017-02-22T10:40:18.644Z,45
2017-02-22T10:45:34.697Z,50
2017-02-22T10:50:50.828Z,55
2017-02-22T10:56:06.444Z,50
2017-02-22T11:01:22.659Z,55
2017-02-22T11:06:38.655Z,60
2017-02-22T11:11:54.484Z,55
2017-02-22T11:17:10.972Z,60
2017-02-22T11:22:27.320Z,20
2017-02-22T11:27:42.951Z,65
2017-02-22T11:32:59.819Z,65
2017-02-22T11:38:15.573Z,65
2017-02-22T11:43:32.652Z,70
2017-02-22T11:48:48.398Z,70
2017-02-22T11:54:04.076Z,70
2017-02-22T11:59:19.915Z,70
2017-02-22T12:04:35.995Z,70
2017-02-22T12:09:52.108Z,70
2017-02-22T12:15:09.511Z,70
2017-02-22T12:20:25.352Z,70
2017-02-22T12:25:42.165Z,70
2017-02-22T12:31:00.433Z,70
2017-02-22T12:36:16.140Z,70
2017-02-22T12:41:32.172Z,70
2017-02-22T12:46:48.566Z,65
2017-02-22T12:52:05.501Z,65
2017-02-22T12:57:21.619Z,65
2017-02-22T13:02:39.188Z,65
2017-02-22T13:07:54.833Z,65
2017-02-22T13:13:10.627Z,65
2017-02-22T13:18:27.369Z,65
2017-02-22T13:23:43.582Z,25
2017-02-22T13:28:59.261Z,25
2017-02-22T13:34:15.879Z,40
2017-02-22T13:39:31.921Z,65
2017-02-22T13:44:49.580Z,45
2017-02-22T13:50:05.570Z,20
2017-02-22T13:55:21.251Z,15
2017-02-22T14:00:37.833Z,15
2017-02-22T14:05:55.146Z,15
2017-02-22T14:11:11.159Z,15
2017-02-22T14:16:27.660Z,15
2017-02-22T14:21:43.599Z,10
2017-02-22T14:26:59.331Z,20
2017-02-22T14:32:15.642Z,10
2017-02-22T14:37:31.648Z,10
2017-02-22T14:42:48.078Z,10
2017-02-22T14:48:05.336Z,50
2017-02-22T14:53:22.891Z,15
2017-02-22T14:58:40.080Z,10
2017-02-22T15:03:56.600Z,5
2017-02-22T15:09:13.478Z,10
2017-02-22T15:14:32.606Z,10
2017-02-22T15:19:50.773Z,5
2017-02-22T15:25:06.902Z,5
2017-02-22T15:30:25.887Z,10
2017-02-22T15:35:43.537Z,10
2017-02-22T15:40:59.431Z,5
2017-02-22T15:46:16.388Z,5
2017-02-22T15:51:32.900Z,15
2017-02-22T15:56:49.540Z,10
2017-02-22T16:02:05.343Z,5
2017-02-22T16:07:21.614Z,10
2017-02-22T16:12:37.711Z,5
2017-02-22T16:17:53.538Z,10
2017-02-22T16:23:09.262Z,5
2017-02-22T16:28:27.962Z,5
2017-02-22T16:33:44.767Z,5
2017-02-22T16:39:01.469Z,5
2017-02-22T16:44:17.797Z,5
2017-02-22T16:49:36.160Z,5
2017-02-22T16:54:52.850Z,5
2017-02-22T17:00:08.827Z,5
2017-02-22T17:05:26.589Z,5
2017-02-22T17:10:42.543Z,5
2017-02-22T17:15:58.352Z,5
2017-02-22T17:21:16.420Z,5
2017-02-22T17:26:32.927Z,5
2017-02-22T17:31:50.105Z,5
2017-02-22T17:37:06.749Z,5
2017-02-22T17:42:22.420Z,5
2017-02-22T17:47:40.961Z,5
2017-02-22T17:52:59.655Z,0
2017-02-22T17:58:18.018Z,0
2017-02-22T18:03:35.205Z,0
2017-02-22T18:08:52.474Z,0
2017-02-22T18:14:09.226Z,0
2017-02-22T18:19:25.680Z,0
2017-02-22T18:24:42.851Z,0
2017-02-22T18:29:59.938Z,0
2017-02-22T18:35:16.558Z,0
2017-02-22T18:40:33.824Z,0
2017-02-22T18:45:51.333Z,0
2017-02-22T18:51:07.666Z,0
2017-02-22T18:56:25.706Z,0
2017-02-22T19:01:42.547Z,0
2017-02-22T19:07:00.365Z,0
2017-02-22T19:12:16.694Z,0
2017-02-22T19:17:34.423Z,0
2017-02-22T19:22:51.659Z,0
2017-02-22T19:28:08.937Z,0
2017-02-22T19:33:27.681Z,0
2017-02-22T19:38:47.745Z,0
2017-02-22T19:44:09.576Z,0
2017-02-22T19:49:27.809Z,0
2017-02-22T19:54:45.712Z,0
2017-02-22T20:00:03.156Z,0
2017-02-22T20:05:19.713Z,0
2017-02-22T20:10:38.047Z,0
2017-02-22T20:15:54.283Z,0
2017-02-22T20:21:10.015Z,0
2017-02-22T20:26:28.642Z,0
2017-02-22T20:31:44.989Z,0
2017-02-22T20:37:02.373Z,0
2017-02-22T20:42:19.717Z,0
2017-02-22T20:47:37.055Z,0
2017-02-22T20:52:54.231Z,0
2017-02-22T20:58:10.498Z,0
2017-02-22T21:03:29.221Z,0
2017-02-22T21:08:46.231Z,0
2017-02-22T21:14:02.691Z,0
2017-02-22T21:19:20.129Z,0
2017-02-22T21:24:37.424Z,0
2017-02-22T21:29:53.449Z,0
2017-02-22T21:35:10.499Z,0
2017-02-22T21:40:30.500Z,0
2017-02-22T21:45:47.504Z,0
2017-02-22T21:51:04.793Z,0
2017-02-22T21:56:21.776Z,0
2017-02-22T22:01:39.881Z,0
2017-02-22T22:06:58.265Z,0
2017-02-22T22:12:14.793Z,0
2017-02-22T22:17:31.097Z,0
2017-02-22T22:22:48.067Z,0
2017-02-22T22:28:07.124Z,0
2017-02-22T22:33:25.182Z,0
2017-02-22T22:38:44.535Z,0
2017-02-22T22:44:02.920Z,0
2017-02-22T22:49:19.256Z,0
2017-02-22T22:54:40.981Z,0
2017-02-22T22:59:57.141Z,0
2017-02-22T23:05:13.292Z,0
2017-02-22T23:10:29.071Z,0
2017-02-22T23:15:44.775Z,0
2017-02-22T23:21:00.537Z,0
2017-02-22T23:26:16.405Z,0
2017-02-22T23:37:36.807Z,0
2017-02-22T23:39:22.217Z,0
2017-02-22T23:44:52.935Z,0
2017-02-22T23:50:09.851Z,0
2017-02-22T23:55:42.577Z,0
